Aviation Digital Data Service (ADDS)

Output produced by TAFs form (2218 UTC 27 September 2016)
found at http://www.aviationweather.gov/adds/tafs/
 
KPSF 271724Z 2718/2818 23004KT P6SM FEW025 SCT040 
     FM272200 VRB02KT P6SM FEW040 
     FM280400 00000KT 3SM BR SCT002 
     FM280600 00000KT 2SM BR BKN002 
     FM281300 08008KT P6SM SCT012 OVC020